createdAt,value
2022-08-14T00:02:02.288Z,19.39
2022-08-14T00:04:41.905Z,19.39
2022-08-14T00:07:13.792Z,19.33
2022-08-14T00:10:01.793Z,19.32
2022-08-14T00:12:33.459Z,19.31
2022-08-14T00:15:13.376Z,19.24
2022-08-14T00:17:48.171Z,19.28
2022-08-14T00:20:30.150Z,19.27
2022-08-14T00:22:58.808Z,19.25
2022-08-14T00:25:42.321Z,19.27
2022-08-14T00:28:15.339Z,19.25
2022-08-14T00:30:47.450Z,19.23
2022-08-14T00:33:16.380Z,19.21
2022-08-14T00:36:37.318Z,19.18
2022-08-14T00:38:35.319Z,18.80
2022-08-14T00:41:06.125Z,19.10
2022-08-14T00:43:34.266Z,19.12
2022-08-14T00:46:08.014Z,19.10
2022-08-14T00:48:38.346Z,19.07
2022-08-14T00:51:14.895Z,19.05
2022-08-14T00:53:43.757Z,19.03
2022-08-14T00:56:15.557Z,19.02
2022-08-14T00:58:45.107Z,18.84
2022-08-14T01:01:17.020Z,19.00
2022-08-14T01:03:45.513Z,18.89
2022-08-14T01:06:19.239Z,18.97
2022-08-14T01:08:51.607Z,18.64
2022-08-14T01:11:31.827Z,18.75
2022-08-14T01:14:25.978Z,18.90
2022-08-14T01:16:55.749Z,18.87
2022-08-14T01:19:43.343Z,18.86
2022-08-14T01:22:13.436Z,18.84
2022-08-14T01:24:47.216Z,18.83
2022-08-14T01:27:18.207Z,18.81
2022-08-14T01:29:59.144Z,18.82
2022-08-14T01:32:37.414Z,18.80
2022-08-14T01:35:19.129Z,18.77
2022-08-14T01:37:59.890Z,18.76
2022-08-14T01:40:33.152Z,18.73
2022-08-14T01:43:09.005Z,18.74
2022-08-14T01:45:40.835Z,18.71
2022-08-14T01:48:13.940Z,18.71
2022-08-14T01:50:44.187Z,18.72
2022-08-14T01:53:14.903Z,18.70
2022-08-14T01:55:43.803Z,18.67
2022-08-14T01:58:19.739Z,18.33
2022-08-14T02:00:58.875Z,18.64
2022-08-14T02:03:31.003Z,18.65
2022-08-14T02:06:04.304Z,18.65
2022-08-14T02:08:52.986Z,18.60
2022-08-14T02:11:24.766Z,18.56
2022-08-14T02:13:56.746Z,18.58
2022-08-14T02:16:27.348Z,18.58
2022-08-14T02:18:58.163Z,18.58
2022-08-14T02:21:27.281Z,18.55
2022-08-14T02:23:57.557Z,18.39
2022-08-14T02:26:29.809Z,18.55
2022-08-14T02:29:04.198Z,18.31
2022-08-14T02:31:42.398Z,18.54
2022-08-14T02:34:14.747Z,18.52
2022-08-14T02:37:04.591Z,18.50
2022-08-14T02:39:38.619Z,18.49
2022-08-14T02:42:12.858Z,18.46
2022-08-14T02:44:49.051Z,18.32
2022-08-14T02:47:21.078Z,18.45
2022-08-14T02:49:56.693Z,18.44
2022-08-14T02:52:55.656Z,18.43
2022-08-14T02:55:20.082Z,18.42
2022-08-14T02:58:03.393Z,18.08
2022-08-14T03:00:40.104Z,18.39
2022-08-14T03:03:08.989Z,18.37
2022-08-14T03:05:41.284Z,17.97
2022-08-14T03:08:15.382Z,18.36
2022-08-14T03:10:49.350Z,18.04
2022-08-14T03:13:21.458Z,18.32
2022-08-14T03:15:55.309Z,18.30
2022-08-14T03:18:30.813Z,18.31
2022-08-14T03:21:01.789Z,18.29
2022-08-14T03:23:38.223Z,18.22
2022-08-14T03:26:12.632Z,18.29
2022-08-14T03:28:43.348Z,18.32
2022-08-14T03:31:13.152Z,18.31
2022-08-14T03:33:45.508Z,18.32
2022-08-14T03:37:51.228Z,18.13
2022-08-14T03:39:21.928Z,18.30
2022-08-14T03:41:54.229Z,18.33
2022-08-14T03:45:27.001Z,18.22
2022-08-14T03:47:12.147Z,18.29
2022-08-14T03:49:44.120Z,18.16
2022-08-14T03:52:28.163Z,18.36
2022-08-14T03:55:03.966Z,18.36
2022-08-14T03:57:37.228Z,18.36
2022-08-14T04:00:14.028Z,18.39
2022-08-14T04:02:57.240Z,18.44
2022-08-14T04:05:26.611Z,18.43
2022-08-14T04:08:08.484Z,18.42
2022-08-14T04:10:42.937Z,18.51
2022-08-14T04:13:18.358Z,18.54
2022-08-14T04:15:56.387Z,18.46
2022-08-14T04:18:30.621Z,18.60
2022-08-14T04:20:59.441Z,18.62
2022-08-14T04:23:29.465Z,18.65
2022-08-14T04:26:08.286Z,18.68
2022-08-14T04:29:01.945Z,18.67
2022-08-14T04:32:58.418Z,18.76
2022-08-14T04:34:27.303Z,18.80
2022-08-14T04:37:17.400Z,18.81
2022-08-14T04:40:08.621Z,18.78
2022-08-14T04:43:03.264Z,18.87
2022-08-14T04:45:40.933Z,18.93
2022-08-14T04:48:12.976Z,18.95
2022-08-14T04:50:44.305Z,18.97
2022-08-14T04:53:15.797Z,18.94
2022-08-14T04:55:50.019Z,19.02
2022-08-14T04:58:32.421Z,19.05
2022-08-14T05:01:06.288Z,19.06
2022-08-14T05:03:42.240Z,18.91
2022-08-14T05:06:37.705Z,19.03
2022-08-14T05:09:00.809Z,19.16
2022-08-14T05:11:34.652Z,19.08
2022-08-14T05:14:34.338Z,19.27
2022-08-14T05:16:54.267Z,19.32
2022-08-14T05:19:29.565Z,19.33
2022-08-14T05:22:15.796Z,19.13
2022-08-14T05:24:48.699Z,19.47
2022-08-14T05:27:22.801Z,19.52
2022-08-14T05:29:55.141Z,19.55
2022-08-14T05:32:27.653Z,19.60
2022-08-14T05:34:58.477Z,19.65
2022-08-14T05:37:28.015Z,19.71
2022-08-14T05:39:57.504Z,19.77
2022-08-14T05:42:29.270Z,19.85
2022-08-14T05:45:00.354Z,19.91
2022-08-14T05:47:33.937Z,19.97
2022-08-14T05:50:17.571Z,20.03
2022-08-14T05:52:47.360Z,20.12
2022-08-14T05:55:15.648Z,20.17
2022-08-14T05:57:53.330Z,20.23
2022-08-14T06:00:28.350Z,20.28
2022-08-14T06:02:59.978Z,20.40
2022-08-14T06:05:29.614Z,20.49
2022-08-14T06:07:59.352Z,20.57
2022-08-14T06:10:28.530Z,20.66
2022-08-14T06:12:58.163Z,20.70
2022-08-14T06:15:30.678Z,20.78
2022-08-14T06:18:01.748Z,20.86
2022-08-14T06:20:41.178Z,20.95
2022-08-14T06:23:09.350Z,21.00
2022-08-14T06:25:37.636Z,21.05
2022-08-14T06:28:06.465Z,21.24
2022-08-14T06:30:54.926Z,21.30
2022-08-14T06:33:30.130Z,21.35
2022-08-14T06:36:12.859Z,21.43
2022-08-14T06:38:46.545Z,21.51
2022-08-14T06:41:20.858Z,21.59
2022-08-14T06:44:04.601Z,21.67
2022-08-14T06:46:34.085Z,21.76
2022-08-14T06:49:04.305Z,21.80
2022-08-14T06:51:44.338Z,21.93
2022-08-14T06:54:12.884Z,22.02
2022-08-14T06:56:44.230Z,22.10
2022-08-14T06:59:19.637Z,22.20
2022-08-14T07:02:06.094Z,22.33
2022-08-14T07:04:59.930Z,22.49
2022-08-14T07:07:39.306Z,22.65
2022-08-14T07:10:07.929Z,22.84
2022-08-14T07:13:02.056Z,23.09
2022-08-14T07:15:33.671Z,23.37
2022-08-14T07:18:03.824Z,23.82
2022-08-14T07:20:38.762Z,24.46
2022-08-14T07:23:10.707Z,25.04
2022-08-14T07:25:42.042Z,25.63
2022-08-14T07:28:20.700Z,25.88
2022-08-14T07:30:51.595Z,26.30
2022-08-14T07:33:29.205Z,26.52
2022-08-14T07:36:01.900Z,26.82
2022-08-14T07:38:37.660Z,27.34
2022-08-14T07:41:14.371Z,27.83
2022-08-14T07:43:52.950Z,28.32
2022-08-14T07:46:28.234Z,28.48
2022-08-14T07:48:58.374Z,28.56
2022-08-14T07:51:34.131Z,28.71
2022-08-14T07:54:03.399Z,28.93
2022-08-14T07:56:47.912Z,29.39
2022-08-14T07:59:18.693Z,29.92
2022-08-14T08:01:48.259Z,30.57
2022-08-14T08:04:26.961Z,30.96
2022-08-14T08:06:56.798Z,31.35
2022-08-14T08:09:32.121Z,31.73
2022-08-14T08:12:04.581Z,31.75
2022-08-14T08:14:56.754Z,31.90
2022-08-14T08:17:24.628Z,31.85
2022-08-14T08:19:52.651Z,31.99
2022-08-14T08:22:23.828Z,31.90
2022-08-14T08:24:55.670Z,31.83
2022-08-14T08:27:25.894Z,31.83
2022-08-14T08:30:10.211Z,31.81
2022-08-14T08:32:41.419Z,31.89
2022-08-14T08:35:19.090Z,31.85
2022-08-14T08:37:48.665Z,31.79
2022-08-14T08:40:32.416Z,31.99
2022-08-14T08:43:00.419Z,32.03
2022-08-14T08:45:30.367Z,31.99
2022-08-14T08:47:59.115Z,32.42
2022-08-14T08:53:04.618Z,32.53
2022-08-14T08:55:35.578Z,32.99
2022-08-14T08:58:16.016Z,33.44
2022-08-14T09:00:48.833Z,33.30
2022-08-14T09:03:20.809Z,33.21
2022-08-14T09:05:54.003Z,33.20
2022-08-14T09:08:31.670Z,33.22
2022-08-14T09:11:02.887Z,33.62
2022-08-14T09:13:49.934Z,34.23
2022-08-14T09:16:21.143Z,34.40
2022-08-14T09:18:49.995Z,34.88
2022-08-14T09:21:24.061Z,34.92
2022-08-14T09:24:29.441Z,34.59
2022-08-14T09:26:49.600Z,35.85
2022-08-14T09:29:22.887Z,35.61
2022-08-14T09:31:57.268Z,35.60
2022-08-14T09:34:39.544Z,35.56
2022-08-14T09:37:36.074Z,35.39
2022-08-14T09:40:16.603Z,35.10
2022-08-14T09:42:59.058Z,34.69
2022-08-14T09:45:40.309Z,34.57
2022-08-14T09:48:29.932Z,35.11
2022-08-14T09:54:13.549Z,35.69
2022-08-14T09:56:32.914Z,36.29
2022-08-14T09:59:15.374Z,36.56
2022-08-14T10:01:46.082Z,36.72
2022-08-14T10:04:33.744Z,37.00
2022-08-14T10:07:05.339Z,37.28
2022-08-14T10:09:35.004Z,37.42
2022-08-14T10:12:13.288Z,37.47
2022-08-14T10:14:53.070Z,37.60
2022-08-14T10:17:27.621Z,37.45
2022-08-14T10:20:01.307Z,36.45
2022-08-14T10:23:13.512Z,35.78
2022-08-14T10:25:19.928Z,35.55
2022-08-14T10:27:59.974Z,35.24
2022-08-14T10:30:35.248Z,34.75
2022-08-14T10:33:07.063Z,34.55
2022-08-14T10:35:42.570Z,34.20
2022-08-14T10:38:19.007Z,34.48
2022-08-14T10:40:51.973Z,34.95
2022-08-14T10:43:25.807Z,35.17
2022-08-14T10:46:03.668Z,34.86
2022-08-14T10:48:58.238Z,35.18
2022-08-14T10:51:29.909Z,35.42
2022-08-14T10:54:01.944Z,35.59
2022-08-14T10:56:52.038Z,35.99
2022-08-14T10:59:34.993Z,36.22
2022-08-14T11:02:35.828Z,36.38
2022-08-14T11:05:13.214Z,36.37
2022-08-14T11:07:44.567Z,36.33
2022-08-14T11:10:15.703Z,36.35
2022-08-14T11:12:48.122Z,36.25
2022-08-14T11:15:20.277Z,35.99
2022-08-14T11:17:49.537Z,36.06
2022-08-14T11:20:20.237Z,35.84
2022-08-14T11:22:57.985Z,35.68
2022-08-14T11:25:44.119Z,35.92
2022-08-14T11:28:20.901Z,35.95
2022-08-14T11:31:14.055Z,35.29
2022-08-14T11:33:42.669Z,35.07
2022-08-14T11:36:17.787Z,35.07
2022-08-14T11:38:47.564Z,34.87
2022-08-14T11:41:17.645Z,34.76
2022-08-14T11:43:57.880Z,34.51
2022-08-14T11:46:30.585Z,34.28
2022-08-14T11:49:06.703Z,34.01
2022-08-14T11:51:53.652Z,33.82
2022-08-14T11:54:30.040Z,33.95
2022-08-14T11:57:04.666Z,34.27
2022-08-14T11:59:34.166Z,34.04
2022-08-14T12:03:08.565Z,33.46
2022-08-14T12:05:00.230Z,33.58
2022-08-14T12:07:28.811Z,33.84
2022-08-14T12:10:00.806Z,34.01
2022-08-14T12:12:49.993Z,34.01
2022-08-14T12:15:30.564Z,34.01
2022-08-14T12:18:01.488Z,33.97
2022-08-14T12:20:34.644Z,34.20
2022-08-14T12:23:05.240Z,34.57
2022-08-14T12:25:37.510Z,34.70
2022-08-14T12:28:33.358Z,34.74
2022-08-14T12:31:02.109Z,34.80
2022-08-14T12:33:34.575Z,35.04
2022-08-14T12:36:06.143Z,35.24
2022-08-14T12:38:37.868Z,35.08
2022-08-14T12:41:11.600Z,34.80
2022-08-14T12:43:51.669Z,34.82
2022-08-14T12:46:28.306Z,34.87
2022-08-14T12:49:00.226Z,35.10
2022-08-14T12:51:31.336Z,35.19
2022-08-14T12:54:00.503Z,35.48
2022-08-14T12:56:33.672Z,35.25
2022-08-14T12:59:04.578Z,34.89
2022-08-14T13:01:59.738Z,34.80
2022-08-14T13:04:25.733Z,34.59
2022-08-14T13:06:54.088Z,34.62
2022-08-14T13:09:35.891Z,34.74
2022-08-14T13:12:32.243Z,34.93
2022-08-14T13:14:58.822Z,35.41
2022-08-14T13:17:27.284Z,35.38
2022-08-14T13:20:01.128Z,35.29
2022-08-14T13:22:33.561Z,35.55
2022-08-14T13:25:07.406Z,35.85
2022-08-14T13:27:38.646Z,36.14
2022-08-14T13:30:14.562Z,36.29
2022-08-14T13:32:53.316Z,36.21
2022-08-14T13:35:23.098Z,36.20
2022-08-14T13:37:53.692Z,36.47
2022-08-14T13:40:26.211Z,36.61
2022-08-14T13:42:57.220Z,36.69
2022-08-14T13:45:33.954Z,36.82
2022-08-14T13:48:18.517Z,36.96
2022-08-14T13:51:05.639Z,36.49
2022-08-14T13:53:52.598Z,36.67
2022-08-14T13:56:36.859Z,36.78
2022-08-14T13:59:06.512Z,36.85
2022-08-14T14:01:43.476Z,36.75
2022-08-14T14:04:19.279Z,36.81
2022-08-14T14:06:52.287Z,36.75
2022-08-14T14:09:32.567Z,36.67
2022-08-14T14:12:38.354Z,36.81
2022-08-14T14:15:05.469Z,36.62
2022-08-14T14:17:34.089Z,36.69
2022-08-14T14:20:04.552Z,36.92
2022-08-14T14:23:00.939Z,37.13
2022-08-14T14:25:22.564Z,36.65
2022-08-14T14:27:53.452Z,36.25
2022-08-14T14:30:46.200Z,36.05
2022-08-14T14:33:42.207Z,36.08
2022-08-14T14:36:05.185Z,35.83
2022-08-14T14:38:35.258Z,35.81
2022-08-14T14:41:05.793Z,36.42
2022-08-14T14:43:38.968Z,36.89
2022-08-14T14:46:09.476Z,36.53
2022-08-14T14:48:46.700Z,35.82
2022-08-14T14:51:22.641Z,36.65
2022-08-14T14:53:52.841Z,36.58
2022-08-14T14:56:50.258Z,36.26
2022-08-14T14:59:12.699Z,36.19
2022-08-14T15:01:41.344Z,36.35
2022-08-14T15:04:19.812Z,36.24
2022-08-14T15:06:49.158Z,35.99
2022-08-14T15:09:20.414Z,35.78
2022-08-14T15:11:51.182Z,35.83
2022-08-14T15:14:56.203Z,35.96
2022-08-14T15:17:08.802Z,35.69
2022-08-14T15:19:38.518Z,35.73
2022-08-14T15:22:10.592Z,35.98
2022-08-14T15:24:40.538Z,36.02
2022-08-14T15:27:10.701Z,36.03
2022-08-14T15:29:43.205Z,36.26
2022-08-14T15:32:11.613Z,36.09
2022-08-14T15:34:48.683Z,35.90
2022-08-14T15:37:22.697Z,35.85
2022-08-14T15:39:53.043Z,35.88
2022-08-14T15:42:23.149Z,35.56
2022-08-14T15:44:58.385Z,35.17
2022-08-14T15:47:31.151Z,34.80
2022-08-14T15:50:01.194Z,34.80
2022-08-14T15:52:33.734Z,35.24
2022-08-14T15:55:10.531Z,35.58
2022-08-14T15:58:01.665Z,35.80
2022-08-14T16:00:50.206Z,35.90
2022-08-14T16:03:27.552Z,35.81
2022-08-14T16:06:11.023Z,35.80
2022-08-14T16:08:50.339Z,36.06
2022-08-14T16:11:33.414Z,35.98
2022-08-14T16:14:06.795Z,36.40
2022-08-14T16:16:51.458Z,36.77
2022-08-14T16:19:31.150Z,36.76
2022-08-14T16:22:58.611Z,36.31
2022-08-14T16:25:02.053Z,36.38
2022-08-14T16:27:39.478Z,36.68
2022-08-14T16:30:24.665Z,36.69
2022-08-14T16:32:57.014Z,36.56
2022-08-14T16:35:42.923Z,36.41
2022-08-14T16:38:35.800Z,36.19
2022-08-14T16:41:27.654Z,35.74
2022-08-14T16:44:01.519Z,35.73
2022-08-14T16:46:32.680Z,35.75
2022-08-14T16:49:01.510Z,34.98
2022-08-14T16:51:33.935Z,33.83
2022-08-14T16:54:33.810Z,33.33
2022-08-14T16:56:54.086Z,32.49
2022-08-14T16:59:30.514Z,31.78
2022-08-14T17:02:12.938Z,31.03
2022-08-14T17:04:49.212Z,30.39
2022-08-14T17:07:17.586Z,30.17
2022-08-14T17:09:48.497Z,29.99
2022-08-14T17:12:28.608Z,29.98
2022-08-14T17:15:10.568Z,29.79
2022-08-14T17:17:57.447Z,29.47
2022-08-14T17:21:00.570Z,29.45
2022-08-14T17:23:15.336Z,29.69
2022-08-14T17:25:49.355Z,29.63
2022-08-14T17:28:50.424Z,29.30
2022-08-14T17:31:12.797Z,28.76
2022-08-14T17:33:44.777Z,28.34
2022-08-14T17:36:24.283Z,27.65
2022-08-14T17:39:06.207Z,27.52
2022-08-14T17:41:38.743Z,27.12
2022-08-14T17:44:19.846Z,26.87
2022-08-14T17:46:57.023Z,26.46
2022-08-14T17:49:27.277Z,26.37
2022-08-14T17:52:17.515Z,26.00
2022-08-14T17:54:53.027Z,25.86
2022-08-14T17:57:35.234Z,25.67
2022-08-14T18:00:04.049Z,25.49
2022-08-14T18:02:36.546Z,25.36
2022-08-14T18:05:08.809Z,25.21
2022-08-14T18:07:50.687Z,25.01
2022-08-14T18:10:52.030Z,24.86
2022-08-14T18:13:16.583Z,24.76
2022-08-14T18:15:51.095Z,24.68
2022-08-14T18:18:21.529Z,24.57
2022-08-14T18:21:42.512Z,24.48
2022-08-14T18:23:44.778Z,24.40
2022-08-14T18:26:37.242Z,24.30
2022-08-14T18:29:07.612Z,24.19
2022-08-14T18:31:45.386Z,24.09
2022-08-14T18:34:30.799Z,23.97
2022-08-14T18:37:12.524Z,23.84
2022-08-14T18:40:03.224Z,23.84
2022-08-14T18:42:46.018Z,23.80
2022-08-14T18:45:26.385Z,23.71
2022-08-14T18:48:33.624Z,22.86
2022-08-14T18:51:45.710Z,23.18
2022-08-14T18:54:29.694Z,23.36
2022-08-14T18:57:02.278Z,23.28
2022-08-14T18:59:40.256Z,22.58
2022-08-14T19:02:44.532Z,23.15
2022-08-14T19:05:14.475Z,23.09
2022-08-14T19:07:48.252Z,23.01
2022-08-14T19:10:31.928Z,22.89
2022-08-14T19:13:12.398Z,22.24
2022-08-14T19:15:44.143Z,22.87
2022-08-14T19:18:26.493Z,22.80
2022-08-14T19:20:58.203Z,22.72
2022-08-14T19:23:42.467Z,22.74
2022-08-14T19:29:23.981Z,22.56
2022-08-14T19:31:55.271Z,22.49
2022-08-14T19:34:40.485Z,22.45
2022-08-14T19:37:47.749Z,22.38
2022-08-14T19:40:30.003Z,22.31
2022-08-14T19:43:01.338Z,21.83
2022-08-14T19:45:33.874Z,22.24
2022-08-14T19:48:02.807Z,22.16
2022-08-14T19:50:40.751Z,22.16
2022-08-14T19:53:17.291Z,22.02
2022-08-14T19:55:59.234Z,22.04
2022-08-14T19:58:55.494Z,21.95
2022-08-14T20:01:37.520Z,21.89
2022-08-14T20:04:46.939Z,21.88
2022-08-14T20:06:57.913Z,21.84
2022-08-14T20:11:04.171Z,21.81
2022-08-14T20:12:34.883Z,21.65
2022-08-14T20:15:15.536Z,21.56
2022-08-14T20:17:52.348Z,21.71
2022-08-14T20:20:31.815Z,21.51
2022-08-14T20:23:10.883Z,21.63
2022-08-14T20:25:55.696Z,21.58
2022-08-14T20:28:32.910Z,21.53
2022-08-14T20:31:20.148Z,21.52
2022-08-14T20:34:19.348Z,21.50
2022-08-14T20:37:02.820Z,21.53
2022-08-14T20:39:34.391Z,21.55
2022-08-14T20:42:24.947Z,21.56
2022-08-14T20:45:17.272Z,21.53
2022-08-14T20:47:50.531Z,21.47
2022-08-14T20:50:28.757Z,21.43
2022-08-14T20:52:59.646Z,21.34
2022-08-14T20:55:32.544Z,20.95
2022-08-14T20:58:09.818Z,21.25
2022-08-14T21:00:52.292Z,21.16
2022-08-14T21:03:37.228Z,21.21
2022-08-14T21:06:28.453Z,21.11
2022-08-14T21:09:03.320Z,21.12
2022-08-14T21:11:33.023Z,20.82
2022-08-14T21:14:24.919Z,21.06
2022-08-14T21:16:59.065Z,20.99
2022-08-14T21:19:30.193Z,20.95
2022-08-14T21:22:01.506Z,20.98
2022-08-14T21:24:39.227Z,20.99
2022-08-14T21:27:20.448Z,20.99
2022-08-14T21:29:55.491Z,20.92
2022-08-14T21:32:35.301Z,20.85
2022-08-14T21:35:09.039Z,20.80
2022-08-14T21:37:45.986Z,20.80
2022-08-14T21:40:39.853Z,20.81
2022-08-14T21:43:05.760Z,20.66
2022-08-14T21:45:35.514Z,20.78
2022-08-14T21:48:10.914Z,20.75
2022-08-14T21:51:01.322Z,20.71
2022-08-14T21:53:33.857Z,20.68
2022-08-14T21:56:03.973Z,20.64
2022-08-14T21:58:53.843Z,20.60
2022-08-14T22:01:21.740Z,20.54
2022-08-14T22:03:55.291Z,20.50
2022-08-14T22:06:28.849Z,20.47
2022-08-14T22:08:58.498Z,20.21
2022-08-14T22:11:27.736Z,20.34
2022-08-14T22:14:02.392Z,20.33
2022-08-14T22:17:02.252Z,20.26
2022-08-14T22:19:47.423Z,20.14
2022-08-14T22:22:26.012Z,19.84
2022-08-14T22:25:00.317Z,20.19
2022-08-14T22:27:32.199Z,20.17
2022-08-14T22:30:03.046Z,20.16
2022-08-14T22:32:55.911Z,20.13
2022-08-14T22:35:19.521Z,20.04
2022-08-14T22:38:01.852Z,19.96
2022-08-14T22:41:20.264Z,19.87
2022-08-14T22:43:35.248Z,19.92
2022-08-14T22:46:03.329Z,19.93
2022-08-14T22:48:45.397Z,19.95
2022-08-14T22:51:14.932Z,19.94
2022-08-14T22:53:46.249Z,19.92
2022-08-14T22:56:21.254Z,19.91
2022-08-14T22:58:54.034Z,19.54
2022-08-14T23:01:56.468Z,19.88
2022-08-14T23:04:35.155Z,19.86
2022-08-14T23:07:22.261Z,19.81
2022-08-14T23:09:56.930Z,19.74
2022-08-14T23:12:29.433Z,19.69
2022-08-14T23:15:00.109Z,19.66
2022-08-14T23:17:39.348Z,19.64
2022-08-14T23:20:18.999Z,19.57
2022-08-14T23:22:51.534Z,19.58
2022-08-14T23:25:56.693Z,19.54
2022-08-14T23:28:34.157Z,19.31
2022-08-14T23:31:08.634Z,19.58
2022-08-14T23:33:38.950Z,19.65
2022-08-14T23:36:31.928Z,19.63
2022-08-14T23:39:10.430Z,19.61
2022-08-14T23:41:46.860Z,19.63
2022-08-14T23:44:21.860Z,19.55
2022-08-14T23:46:52.594Z,19.53
2022-08-14T23:49:25.631Z,19.50
2022-08-14T23:51:59.604Z,19.57
2022-08-14T23:54:49.411Z,19.59
2022-08-14T23:57:19.498Z,19.55
2022-08-14T23:59:54.221Z,19.29
